sensor_id;sensor_type;location;lat;lon;timestamp;pressure;altitude;pressure_sealevel;temperature;humidity
42887;BME280;29032;56.028;92.904;2023-07-13T00:02:36;99578.56;;;17.88;58.73
42887;BME280;29032;56.028;92.904;2023-07-13T00:07:38;99566.25;;;17.84;58.99
42887;BME280;29032;56.028;92.904;2023-07-13T00:12:42;99565.06;;;17.94;59.21
42887;BME280;29032;56.028;92.904;2023-07-13T00:17:44;99569.16;;;18.01;59.10
42887;BME280;29032;56.028;92.904;2023-07-13T00:22:46;99561.41;;;18.09;58.83
42887;BME280;29032;56.028;92.904;2023-07-13T00:27:50;99546.38;;;18.22;58.99
42887;BME280;29032;56.028;92.904;2023-07-13T00:32:52;99547.31;;;18.25;58.93
42887;BME280;29032;56.028;92.904;2023-07-13T00:37:54;99545.41;;;18.27;58.73
42887;BME280;29032;56.028;92.904;2023-07-13T00:42:59;99543.88;;;18.34;59.19
42887;BME280;29032;56.028;92.904;2023-07-13T00:48:01;99541.97;;;18.36;59.07
42887;BME280;29032;56.028;92.904;2023-07-13T00:53:06;99544.16;;;18.45;59.01
42887;BME280;29032;56.028;92.904;2023-07-13T00:58:11;99545.94;;;18.58;59.06
42887;BME280;29032;56.028;92.904;2023-07-13T01:03:13;99539.19;;;18.61;58.73
42887;BME280;29032;56.028;92.904;2023-07-13T01:08:16;99527.53;;;18.65;58.96
42887;BME280;29032;56.028;92.904;2023-07-13T01:13:20;99518.13;;;18.70;58.89
42887;BME280;29032;56.028;92.904;2023-07-13T01:18:24;99513.31;;;18.63;59.13
42887;BME280;29032;56.028;92.904;2023-07-13T01:23:29;99516.47;;;18.67;58.97
42887;BME280;29032;56.028;92.904;2023-07-13T01:28:31;99511.91;;;18.71;58.96
42887;BME280;29032;56.028;92.904;2023-07-13T01:33:37;99516.84;;;18.88;58.94
42887;BME280;29032;56.028;92.904;2023-07-13T01:38:40;99511.44;;;19.00;58.38
42887;BME280;29032;56.028;92.904;2023-07-13T01:43:43;99503.84;;;19.10;58.22
42887;BME280;29032;56.028;92.904;2023-07-13T01:48:45;99505.25;;;19.19;58.20
42887;BME280;29032;56.028;92.904;2023-07-13T01:53:48;99510.69;;;19.34;58.12
42887;BME280;29032;56.028;92.904;2023-07-13T01:58:52;99503.13;;;19.44;57.89
42887;BME280;29032;56.028;92.904;2023-07-13T02:03:54;99494.25;;;19.48;57.66
42887;BME280;29032;56.028;92.904;2023-07-13T02:08:57;99489.00;;;19.62;58.07
42887;BME280;29032;56.028;92.904;2023-07-13T02:14:00;99484.75;;;19.70;57.78
42887;BME280;29032;56.028;92.904;2023-07-13T02:19:02;99467.75;;;19.78;57.67
42887;BME280;29032;56.028;92.904;2023-07-13T02:24:06;99470.19;;;19.91;57.26
42887;BME280;29032;56.028;92.904;2023-07-13T02:29:08;99474.66;;;19.94;56.88
42887;BME280;29032;56.028;92.904;2023-07-13T02:34:10;99459.53;;;19.99;57.55
42887;BME280;29032;56.028;92.904;2023-07-13T02:39:14;99467.19;;;20.16;57.36
42887;BME280;29032;56.028;92.904;2023-07-13T02:44:16;99460.06;;;20.15;56.73
42887;BME280;29032;56.028;92.904;2023-07-13T02:49:18;99462.91;;;20.25;56.79
42887;BME280;29032;56.028;92.904;2023-07-13T02:54:21;99456.75;;;20.36;56.56
42887;BME280;29032;56.028;92.904;2023-07-13T02:59:23;99449.50;;;20.43;56.84
42887;BME280;29032;56.028;92.904;2023-07-13T03:04:25;99448.91;;;20.54;56.74
42887;BME280;29032;56.028;92.904;2023-07-13T03:09:29;99433.06;;;20.68;56.03
42887;BME280;29032;56.028;92.904;2023-07-13T03:14:32;99426.53;;;20.75;55.69
42887;BME280;29032;56.028;92.904;2023-07-13T03:19:36;99422.81;;;20.82;55.79
42887;BME280;29032;56.028;92.904;2023-07-13T03:24:40;99412.44;;;20.94;54.97
42887;BME280;29032;56.028;92.904;2023-07-13T03:29:42;99387.19;;;21.06;55.44
42887;BME280;29032;56.028;92.904;2023-07-13T03:34:45;99373.97;;;21.18;53.93
42887;BME280;29032;56.028;92.904;2023-07-13T03:39:49;99364.41;;;21.33;54.89
42887;BME280;29032;56.028;92.904;2023-07-13T03:44:53;99364.84;;;21.39;53.09
42887;BME280;29032;56.028;92.904;2023-07-13T03:49:55;99360.38;;;21.46;52.48
42887;BME280;29032;56.028;92.904;2023-07-13T03:54:59;99356.94;;;21.57;51.63
42887;BME280;29032;56.028;92.904;2023-07-13T04:00:01;99355.72;;;21.60;50.89
42887;BME280;29032;56.028;92.904;2023-07-13T04:05:03;99351.84;;;21.65;49.46
42887;BME280;29032;56.028;92.904;2023-07-13T04:10:07;99344.03;;;21.75;50.11
42887;BME280;29032;56.028;92.904;2023-07-13T04:15:10;99332.13;;;21.87;50.04
42887;BME280;29032;56.028;92.904;2023-07-13T04:20:12;99335.25;;;21.91;49.23
42887;BME280;29032;56.028;92.904;2023-07-13T04:25:15;99337.53;;;22.04;49.45
42887;BME280;29032;56.028;92.904;2023-07-13T04:30:17;99334.03;;;22.15;48.61
42887;BME280;29032;56.028;92.904;2023-07-13T04:35:20;99310.63;;;22.24;47.82
42887;BME280;29032;56.028;92.904;2023-07-13T04:40:24;99301.47;;;22.36;46.78
42887;BME280;29032;56.028;92.904;2023-07-13T04:45:26;99287.25;;;22.45;46.20
42887;BME280;29032;56.028;92.904;2023-07-13T04:50:28;99284.06;;;22.51;44.87
42887;BME280;29032;56.028;92.904;2023-07-13T04:55:31;99276.78;;;22.69;44.57
42887;BME280;29032;56.028;92.904;2023-07-13T05:00:33;99281.50;;;22.88;45.16
42887;BME280;29032;56.028;92.904;2023-07-13T05:05:35;99278.59;;;22.98;43.66
42887;BME280;29032;56.028;92.904;2023-07-13T05:10:39;99282.31;;;23.12;42.99
42887;BME280;29032;56.028;92.904;2023-07-13T05:15:41;99284.50;;;23.14;42.40
42887;BME280;29032;56.028;92.904;2023-07-13T05:20:43;99269.25;;;23.30;42.60
42887;BME280;29032;56.028;92.904;2023-07-13T05:25:46;99287.28;;;23.47;41.81
42887;BME280;29032;56.028;92.904;2023-07-13T05:30:49;99279.00;;;23.51;42.82
42887;BME280;29032;56.028;92.904;2023-07-13T05:35:51;99290.59;;;23.55;42.58
42887;BME280;29032;56.028;92.904;2023-07-13T05:40:56;99285.78;;;23.69;42.96
42887;BME280;29032;56.028;92.904;2023-07-13T05:45:58;99269.00;;;23.85;42.35
42887;BME280;29032;56.028;92.904;2023-07-13T05:51:01;99272.19;;;24.03;41.61
42887;BME280;29032;56.028;92.904;2023-07-13T05:56:05;99265.34;;;24.31;41.86
42887;BME280;29032;56.028;92.904;2023-07-13T06:01:10;99258.13;;;24.67;40.19
42887;BME280;29032;56.028;92.904;2023-07-13T06:06:12;99237.00;;;24.96;39.60
42887;BME280;29032;56.028;92.904;2023-07-13T06:11:18;99222.63;;;25.33;38.41
42887;BME280;29032;56.028;92.904;2023-07-13T06:16:20;99227.19;;;25.52;39.12
42887;BME280;29032;56.028;92.904;2023-07-13T06:21:23;99204.13;;;25.73;38.77
42887;BME280;29032;56.028;92.904;2023-07-13T06:26:27;99198.06;;;25.95;38.12
42887;BME280;29032;56.028;92.904;2023-07-13T06:31:29;99175.22;;;26.06;38.24
42887;BME280;29032;56.028;92.904;2023-07-13T06:36:31;99165.72;;;26.16;39.16
42887;BME280;29032;56.028;92.904;2023-07-13T06:41:34;99148.94;;;26.22;35.40
42887;BME280;29032;56.028;92.904;2023-07-13T06:46:38;99153.69;;;26.17;36.66
42887;BME280;29032;56.028;92.904;2023-07-13T06:51:40;99143.41;;;26.26;36.70
42887;BME280;29032;56.028;92.904;2023-07-13T06:56:43;99149.69;;;26.38;36.45
42887;BME280;29032;56.028;92.904;2023-07-13T07:01:45;99155.19;;;26.34;36.74
42887;BME280;29032;56.028;92.904;2023-07-13T07:06:47;99145.19;;;26.33;36.61
42887;BME280;29032;56.028;92.904;2023-07-13T07:11:51;99143.06;;;26.33;36.30
42887;BME280;29032;56.028;92.904;2023-07-13T07:16:53;99143.97;;;26.22;36.43
42887;BME280;29032;56.028;92.904;2023-07-13T07:21:55;99135.25;;;26.18;37.41
42887;BME280;29032;56.028;92.904;2023-07-13T07:26:58;99096.28;;;26.21;36.45
42887;BME280;29032;56.028;92.904;2023-07-13T07:32:00;99108.19;;;26.17;36.73
42887;BME280;29032;56.028;92.904;2023-07-13T07:37:03;99111.59;;;26.14;36.67
42887;BME280;29032;56.028;92.904;2023-07-13T07:42:07;99124.50;;;26.17;36.29
42887;BME280;29032;56.028;92.904;2023-07-13T07:47:09;99117.44;;;26.18;36.62
42887;BME280;29032;56.028;92.904;2023-07-13T07:52:11;99113.22;;;26.19;36.72
42887;BME280;29032;56.028;92.904;2023-07-13T07:57:15;99111.50;;;26.27;35.55
42887;BME280;29032;56.028;92.904;2023-07-13T08:02:17;99093.81;;;26.29;36.08
42887;BME280;29032;56.028;92.904;2023-07-13T08:07:19;99079.31;;;26.38;35.73
42887;BME280;29032;56.028;92.904;2023-07-13T08:12:22;99075.63;;;26.52;35.72
42887;BME280;29032;56.028;92.904;2023-07-13T08:17:25;99063.69;;;26.55;35.55
42887;BME280;29032;56.028;92.904;2023-07-13T08:22:27;99075.47;;;26.63;36.27
42887;BME280;29032;56.028;92.904;2023-07-13T08:27:30;99086.13;;;26.79;36.21
42887;BME280;29032;56.028;92.904;2023-07-13T08:32:32;99079.22;;;26.84;36.04
42887;BME280;29032;56.028;92.904;2023-07-13T08:37:34;99079.75;;;26.96;37.07
42887;BME280;29032;56.028;92.904;2023-07-13T08:42:41;99076.22;;;27.13;36.57
42887;BME280;29032;56.028;92.904;2023-07-13T08:47:48;99055.66;;;27.33;35.71
42887;BME280;29032;56.028;92.904;2023-07-13T08:52:55;99064.81;;;27.47;35.38
42887;BME280;29032;56.028;92.904;2023-07-13T08:58:02;99059.06;;;27.63;36.00
42887;BME280;29032;56.028;92.904;2023-07-13T09:03:06;99050.25;;;27.74;35.68
42887;BME280;29032;56.028;92.904;2023-07-13T09:08:29;99051.06;;;27.95;35.24
42887;BME280;29032;56.028;92.904;2023-07-13T09:13:42;99039.91;;;28.01;34.75
42887;BME280;29032;56.028;92.904;2023-07-13T09:18:48;99041.94;;;27.98;33.91
42887;BME280;29032;56.028;92.904;2023-07-13T09:23:53;99025.41;;;27.95;33.93
42887;BME280;29032;56.028;92.904;2023-07-13T09:29:09;99021.88;;;27.96;33.59
42887;BME280;29032;56.028;92.904;2023-07-13T09:34:13;99021.66;;;27.90;33.88
42887;BME280;29032;56.028;92.904;2023-07-13T09:39:25;99029.53;;;28.10;33.30
42887;BME280;29032;56.028;92.904;2023-07-13T09:44:33;99017.53;;;28.13;33.93
42887;BME280;29032;56.028;92.904;2023-07-13T09:49:36;99015.19;;;28.08;33.50
42887;BME280;29032;56.028;92.904;2023-07-13T09:54:38;99002.09;;;28.00;33.83
42887;BME280;29032;56.028;92.904;2023-07-13T09:59:44;99004.94;;;28.00;34.65
42887;BME280;29032;56.028;92.904;2023-07-13T10:04:46;98995.41;;;27.94;34.53
42887;BME280;29032;56.028;92.904;2023-07-13T10:09:58;98991.84;;;27.93;34.30
42887;BME280;29032;56.028;92.904;2023-07-13T10:15:03;98981.81;;;27.92;35.20
42887;BME280;29032;56.028;92.904;2023-07-13T10:20:09;98973.28;;;27.92;34.73
42887;BME280;29032;56.028;92.904;2023-07-13T10:25:18;98973.81;;;28.07;34.08
42887;BME280;29032;56.028;92.904;2023-07-13T10:30:26;98976.06;;;28.10;34.59
42887;BME280;29032;56.028;92.904;2023-07-13T10:35:30;98981.25;;;28.16;33.78
42887;BME280;29032;56.028;92.904;2023-07-13T10:40:35;98978.63;;;28.22;33.55
42887;BME280;29032;56.028;92.904;2023-07-13T10:45:40;98979.59;;;28.28;33.80
42887;BME280;29032;56.028;92.904;2023-07-13T10:50:45;98973.09;;;28.26;33.57
42887;BME280;29032;56.028;92.904;2023-07-13T10:55:56;98962.84;;;28.19;34.70
42887;BME280;29032;56.028;92.904;2023-07-13T11:01:08;98945.41;;;28.11;34.52
42887;BME280;29032;56.028;92.904;2023-07-13T11:06:13;98950.25;;;28.06;34.83
42887;BME280;29032;56.028;92.904;2023-07-13T11:11:37;98947.53;;;28.10;34.50
42887;BME280;29032;56.028;92.904;2023-07-13T11:16:46;98959.31;;;28.00;34.99
42887;BME280;29032;56.028;92.904;2023-07-13T11:22:03;98954.41;;;28.03;35.08
42887;BME280;29032;56.028;92.904;2023-07-13T11:27:22;98944.16;;;27.96;34.87
42887;BME280;29032;56.028;92.904;2023-07-13T11:32:30;98940.44;;;27.91;34.96
42887;BME280;29032;56.028;92.904;2023-07-13T11:37:32;98923.00;;;27.83;35.46
42887;BME280;29032;56.028;92.904;2023-07-13T11:42:35;98924.78;;;27.92;35.44
42887;BME280;29032;56.028;92.904;2023-07-13T11:47:42;98914.41;;;28.01;35.41
42887;BME280;29032;56.028;92.904;2023-07-13T11:52:45;98905.16;;;27.83;37.03
42887;BME280;29032;56.028;92.904;2023-07-13T11:57:50;98906.75;;;27.88;35.92
42887;BME280;29032;56.028;92.904;2023-07-13T12:02:57;98912.34;;;27.84;35.71
42887;BME280;29032;56.028;92.904;2023-07-13T12:08:08;98909.53;;;27.86;35.79
42887;BME280;29032;56.028;92.904;2023-07-13T12:13:11;98892.66;;;27.72;36.17
42887;BME280;29032;56.028;92.904;2023-07-13T12:18:18;98886.94;;;27.72;37.35
42887;BME280;29032;56.028;92.904;2023-07-13T12:23:24;98886.16;;;27.69;37.74
42887;BME280;29032;56.028;92.904;2023-07-13T12:28:35;98883.44;;;27.73;37.03
42887;BME280;29032;56.028;92.904;2023-07-13T12:33:39;98882.09;;;27.57;38.41
42887;BME280;29032;56.028;92.904;2023-07-13T12:38:44;98881.06;;;27.48;37.78
42887;BME280;29032;56.028;92.904;2023-07-13T12:43:47;98877.88;;;27.40;37.88
42887;BME280;29032;56.028;92.904;2023-07-13T12:48:53;98858.75;;;27.42;39.21
42887;BME280;29032;56.028;92.904;2023-07-13T12:53:58;98855.09;;;27.40;38.72
42887;BME280;29032;56.028;92.904;2023-07-13T12:59:21;98861.88;;;27.31;40.23
42887;BME280;29032;56.028;92.904;2023-07-13T13:04:25;98851.34;;;27.17;39.67
42887;BME280;29032;56.028;92.904;2023-07-13T13:09:27;98832.25;;;27.02;40.42
42887;BME280;29032;56.028;92.904;2023-07-13T13:14:29;98826.72;;;26.88;41.18
42887;BME280;29032;56.028;92.904;2023-07-13T13:19:33;98825.69;;;26.80;41.64
42887;BME280;29032;56.028;92.904;2023-07-13T13:24:35;98812.97;;;26.65;42.47
42887;BME280;29032;56.028;92.904;2023-07-13T13:29:38;98820.53;;;26.58;43.06
42887;BME280;29032;56.028;92.904;2023-07-13T13:34:42;98806.53;;;26.47;42.15
42887;BME280;29032;56.028;92.904;2023-07-13T13:39:45;98815.78;;;26.29;42.23
42887;BME280;29032;56.028;92.904;2023-07-13T13:44:47;98819.31;;;26.12;43.52
42887;BME280;29032;56.028;92.904;2023-07-13T13:49:51;98822.06;;;26.10;44.37
42887;BME280;29032;56.028;92.904;2023-07-13T13:54:53;98820.63;;;25.93;44.28
42887;BME280;29032;56.028;92.904;2023-07-13T13:59:55;98828.16;;;25.87;44.48
42887;BME280;29032;56.028;92.904;2023-07-13T14:04:59;98828.88;;;25.87;44.84
42887;BME280;29032;56.028;92.904;2023-07-13T14:10:10;98828.31;;;25.91;44.45
42887;BME280;29032;56.028;92.904;2023-07-13T14:15:20;98815.94;;;25.84;44.87
42887;BME280;29032;56.028;92.904;2023-07-13T14:20:25;98816.78;;;25.71;45.46
42887;BME280;29032;56.028;92.904;2023-07-13T14:25:27;98809.84;;;25.58;45.90
42887;BME280;29032;56.028;92.904;2023-07-13T14:30:29;98821.59;;;25.50;45.82
42887;BME280;29032;56.028;92.904;2023-07-13T14:35:32;98823.84;;;25.54;45.82
42887;BME280;29032;56.028;92.904;2023-07-13T14:40:34;98837.25;;;25.51;45.44
42887;BME280;29032;56.028;92.904;2023-07-13T14:45:39;98843.09;;;25.55;45.58
42887;BME280;29032;56.028;92.904;2023-07-13T14:50:44;98840.91;;;25.54;45.82
42887;BME280;29032;56.028;92.904;2023-07-13T14:55:46;98847.88;;;25.51;45.98
42887;BME280;29032;56.028;92.904;2023-07-13T15:00:48;98847.16;;;25.50;46.07
42887;BME280;29032;56.028;92.904;2023-07-13T15:05:52;98861.88;;;25.63;45.31
42887;BME280;29032;56.028;92.904;2023-07-13T15:10:54;98862.53;;;25.61;45.41
42887;BME280;29032;56.028;92.904;2023-07-13T15:15:56;98865.00;;;25.69;43.86
42887;BME280;29032;56.028;92.904;2023-07-13T15:20:59;98882.97;;;25.73;43.00
42887;BME280;29032;56.028;92.904;2023-07-13T15:26:01;98872.72;;;25.66;42.78
42887;BME280;29032;56.028;92.904;2023-07-13T15:31:17;98877.84;;;25.70;43.05
42887;BME280;29032;56.028;92.904;2023-07-13T15:36:20;98871.59;;;25.89;42.73
42887;BME280;29032;56.028;92.904;2023-07-13T15:41:24;98887.28;;;25.59;43.31
42887;BME280;29032;56.028;92.904;2023-07-13T15:46:27;98876.91;;;25.49;43.27
42887;BME280;29032;56.028;92.904;2023-07-13T15:51:34;98886.81;;;25.48;43.57
42887;BME280;29032;56.028;92.904;2023-07-13T15:56:37;98880.75;;;25.40;44.19
42887;BME280;29032;56.028;92.904;2023-07-13T16:01:39;98886.97;;;25.37;43.76
42887;BME280;29032;56.028;92.904;2023-07-13T16:06:43;98887.06;;;25.39;44.00
42887;BME280;29032;56.028;92.904;2023-07-13T16:11:45;98874.59;;;25.30;44.35
42887;BME280;29032;56.028;92.904;2023-07-13T16:16:47;98876.06;;;25.31;44.09
42887;BME280;29032;56.028;92.904;2023-07-13T16:21:51;98864.25;;;25.37;44.13
42887;BME280;29032;56.028;92.904;2023-07-13T16:26:53;98873.75;;;25.27;44.85
42887;BME280;29032;56.028;92.904;2023-07-13T16:31:59;98870.81;;;25.25;45.10
42887;BME280;29032;56.028;92.904;2023-07-13T16:37:12;98878.69;;;25.27;45.04
42887;BME280;29032;56.028;92.904;2023-07-13T16:42:15;98869.50;;;25.13;45.00
42887;BME280;29032;56.028;92.904;2023-07-13T16:47:18;98864.91;;;25.06;46.26
42887;BME280;29032;56.028;92.904;2023-07-13T16:52:21;98861.78;;;24.99;46.30
42887;BME280;29032;56.028;92.904;2023-07-13T16:57:27;98858.25;;;24.85;47.06
42887;BME280;29032;56.028;92.904;2023-07-13T17:02:34;98852.00;;;24.73;47.29
42887;BME280;29032;56.028;92.904;2023-07-13T17:07:38;98851.03;;;24.68;46.65
42887;BME280;29032;56.028;92.904;2023-07-13T17:12:40;98852.00;;;24.59;47.16
42887;BME280;29032;56.028;92.904;2023-07-13T17:17:44;98858.72;;;24.66;46.51
42887;BME280;29032;56.028;92.904;2023-07-13T17:22:49;98855.97;;;24.68;46.31
42887;BME280;29032;56.028;92.904;2023-07-13T17:27:51;98844.41;;;24.64;46.66
42887;BME280;29032;56.028;92.904;2023-07-13T17:32:53;98844.31;;;24.62;46.79
42887;BME280;29032;56.028;92.904;2023-07-13T17:37:58;98838.97;;;24.68;46.52
42887;BME280;29032;56.028;92.904;2023-07-13T17:43:00;98841.00;;;24.52;46.76
42887;BME280;29032;56.028;92.904;2023-07-13T17:48:03;98829.34;;;24.45;47.90
42887;BME280;29032;56.028;92.904;2023-07-13T17:53:12;98828.47;;;24.57;47.28
42887;BME280;29032;56.028;92.904;2023-07-13T17:58:15;98820.53;;;24.39;48.54
42887;BME280;29032;56.028;92.904;2023-07-13T18:03:21;98830.59;;;24.42;48.40
42887;BME280;29032;56.028;92.904;2023-07-13T18:08:26;98823.72;;;24.32;49.10
42887;BME280;29032;56.028;92.904;2023-07-13T18:13:28;98816.28;;;24.11;49.07
42887;BME280;29032;56.028;92.904;2023-07-13T18:18:32;98814.59;;;24.06;50.99
42887;BME280;29032;56.028;92.904;2023-07-13T18:23:37;98815.72;;;24.01;50.83
42887;BME280;29032;56.028;92.904;2023-07-13T18:28:39;98819.28;;;23.87;51.52
42887;BME280;29032;56.028;92.904;2023-07-13T18:33:41;98811.00;;;23.78;50.37
42887;BME280;29032;56.028;92.904;2023-07-13T18:38:45;98808.41;;;23.68;50.93
42887;BME280;29032;56.028;92.904;2023-07-13T18:43:48;98800.28;;;23.49;51.63
42887;BME280;29032;56.028;92.904;2023-07-13T18:48:51;98803.47;;;23.29;51.39
42887;BME280;29032;56.028;92.904;2023-07-13T18:53:54;98792.53;;;23.10;51.80
42887;BME280;29032;56.028;92.904;2023-07-13T18:58:56;98799.94;;;22.90;52.75
42887;BME280;29032;56.028;92.904;2023-07-13T19:03:58;98792.56;;;22.84;52.93
42887;BME280;29032;56.028;92.904;2023-07-13T19:09:08;98801.50;;;22.93;53.19
42887;BME280;29032;56.028;92.904;2023-07-13T19:14:11;98816.56;;;22.83;53.32
42887;BME280;29032;56.028;92.904;2023-07-13T19:19:16;98813.16;;;22.73;53.07
42887;BME280;29032;56.028;92.904;2023-07-13T19:24:22;98812.69;;;22.65;53.12
42887;BME280;29032;56.028;92.904;2023-07-13T19:29:27;98802.16;;;22.54;54.21
42887;BME280;29032;56.028;92.904;2023-07-13T19:34:29;98809.78;;;22.51;54.18
42887;BME280;29032;56.028;92.904;2023-07-13T19:39:34;98811.72;;;22.61;54.46
42887;BME280;29032;56.028;92.904;2023-07-13T19:44:37;98817.13;;;22.56;55.15
42887;BME280;29032;56.028;92.904;2023-07-13T19:49:39;98818.16;;;22.49;54.53
42887;BME280;29032;56.028;92.904;2023-07-13T19:54:42;98834.13;;;22.45;55.30
42887;BME280;29032;56.028;92.904;2023-07-13T19:59:45;98839.91;;;22.47;54.60
42887;BME280;29032;56.028;92.904;2023-07-13T20:04:47;98821.59;;;22.48;54.64
42887;BME280;29032;56.028;92.904;2023-07-13T20:09:52;98828.00;;;22.37;54.87
42887;BME280;29032;56.028;92.904;2023-07-13T20:14:55;98831.47;;;22.23;55.10
42887;BME280;29032;56.028;92.904;2023-07-13T20:19:57;98823.16;;;22.14;55.49
42887;BME280;29032;56.028;92.904;2023-07-13T20:25:01;98823.91;;;22.14;56.46
42887;BME280;29032;56.028;92.904;2023-07-13T20:30:03;98829.03;;;22.18;55.40
42887;BME280;29032;56.028;92.904;2023-07-13T20:35:23;98833.91;;;22.41;54.34
42887;BME280;29032;56.028;92.904;2023-07-13T20:40:28;98842.78;;;22.35;54.50
42887;BME280;29032;56.028;92.904;2023-07-13T20:45:33;98839.31;;;22.37;54.17
42887;BME280;29032;56.028;92.904;2023-07-13T20:50:35;98824.34;;;22.34;54.26
42887;BME280;29032;56.028;92.904;2023-07-13T20:55:39;98838.69;;;22.38;54.24
42887;BME280;29032;56.028;92.904;2023-07-13T21:00:42;98845.72;;;22.37;54.65
42887;BME280;29032;56.028;92.904;2023-07-13T21:05:44;98854.25;;;22.14;55.15
42887;BME280;29032;56.028;92.904;2023-07-13T21:10:48;98853.03;;;21.93;55.78
42887;BME280;29032;56.028;92.904;2023-07-13T21:15:50;98862.34;;;21.72;56.55
42887;BME280;29032;56.028;92.904;2023-07-13T21:20:53;98858.03;;;21.60;56.77
42887;BME280;29032;56.028;92.904;2023-07-13T21:25:59;98861.34;;;21.56;57.47
42887;BME280;29032;56.028;92.904;2023-07-13T21:31:03;98864.66;;;21.53;57.63
42887;BME280;29032;56.028;92.904;2023-07-13T21:36:06;98861.94;;;21.43;57.46
42887;BME280;29032;56.028;92.904;2023-07-13T21:41:24;98871.53;;;21.61;57.00
42887;BME280;29032;56.028;92.904;2023-07-13T21:46:28;98861.94;;;21.43;58.10
42887;BME280;29032;56.028;92.904;2023-07-13T21:51:32;98853.34;;;21.41;57.97
42887;BME280;29032;56.028;92.904;2023-07-13T21:56:35;98860.97;;;21.50;59.17
42887;BME280;29032;56.028;92.904;2023-07-13T22:01:37;98859.75;;;21.53;57.61
42887;BME280;29032;56.028;92.904;2023-07-13T22:06:39;98849.06;;;21.52;57.73
42887;BME280;29032;56.028;92.904;2023-07-13T22:11:43;98841.09;;;21.60;57.98
42887;BME280;29032;56.028;92.904;2023-07-13T22:16:45;98829.78;;;21.60;56.85
42887;BME280;29032;56.028;92.904;2023-07-13T22:21:47;98831.41;;;21.63;56.67
42887;BME280;29032;56.028;92.904;2023-07-13T22:26:51;98842.44;;;21.70;56.77
42887;BME280;29032;56.028;92.904;2023-07-13T22:31:53;98849.19;;;21.65;56.92
42887;BME280;29032;56.028;92.904;2023-07-13T22:36:56;98841.56;;;21.68;56.49
42887;BME280;29032;56.028;92.904;2023-07-13T22:41:59;98833.97;;;21.70;56.68
42887;BME280;29032;56.028;92.904;2023-07-13T22:47:01;98823.91;;;21.67;56.47
42887;BME280;29032;56.028;92.904;2023-07-13T22:52:08;98835.44;;;21.71;56.40
42887;BME280;29032;56.028;92.904;2023-07-13T22:57:13;98825.00;;;21.74;56.90
42887;BME280;29032;56.028;92.904;2023-07-13T23:02:16;98825.88;;;21.77;56.88
42887;BME280;29032;56.028;92.904;2023-07-13T23:07:18;98831.28;;;21.72;56.11
42887;BME280;29032;56.028;92.904;2023-07-13T23:12:22;98838.66;;;21.78;56.44
42887;BME280;29032;56.028;92.904;2023-07-13T23:17:25;98826.97;;;21.71;57.16
42887;BME280;29032;56.028;92.904;2023-07-13T23:22:27;98820.22;;;21.77;56.61
42887;BME280;29032;56.028;92.904;2023-07-13T23:27:31;98831.03;;;21.80;58.39
42887;BME280;29032;56.028;92.904;2023-07-13T23:32:33;98828.81;;;21.79;57.60
42887;BME280;29032;56.028;92.904;2023-07-13T23:37:35;98827.34;;;21.78;58.27
42887;BME280;29032;56.028;92.904;2023-07-13T23:42:38;98831.03;;;21.80;58.29
42887;BME280;29032;56.028;92.904;2023-07-13T23:47:40;98828.31;;;21.82;57.34
42887;BME280;29032;56.028;92.904;2023-07-13T23:52:44;98833.00;;;21.78;57.63
42887;BME280;29032;56.028;92.904;2023-07-13T23:57:48;98822.81;;;21.84;57.66
